createdAt,value
2019-04-20T00:02:04.502Z,99.90
2019-04-20T00:04:33.674Z,99.90
2019-04-20T00:07:00.090Z,99.90
2019-04-20T00:09:33.231Z,99.90
2019-04-20T00:12:08.918Z,99.90
2019-04-20T00:14:34.564Z,99.90
2019-04-20T00:17:03.015Z,99.90
2019-04-20T00:19:40.006Z,99.90
2019-04-20T00:22:08.692Z,99.90
2019-04-20T00:25:00.441Z,99.90
2019-04-20T00:27:44.324Z,99.90
2019-04-20T00:30:22.774Z,99.90
2019-04-20T00:32:41.264Z,99.90
2019-04-20T00:34:58.003Z,99.90
2019-04-20T00:37:27.764Z,99.90
2019-04-20T00:39:57.822Z,99.90
2019-04-20T00:42:34.020Z,99.90
2019-04-20T00:45:06.772Z,99.90
2019-04-20T00:47:37.104Z,99.90
2019-04-20T00:50:19.583Z,99.90
2019-04-20T00:52:51.339Z,99.90
2019-04-20T00:55:04.321Z,99.90
2019-04-20T00:57:41.388Z,99.90
2019-04-20T01:00:26.876Z,99.90
2019-04-20T01:02:50.617Z,99.90
2019-04-20T01:05:23.185Z,99.90
2019-04-20T01:07:56.213Z,99.90
2019-04-20T01:10:23.542Z,99.90
2019-04-20T01:13:02.489Z,99.90
2019-04-20T01:15:36.409Z,99.90
2019-04-20T01:17:55.178Z,99.90
2019-04-20T01:20:26.364Z,99.90
2019-04-20T01:23:01.893Z,99.90
2019-04-20T01:25:32.275Z,99.90
2019-04-20T01:28:12.135Z,99.90
2019-04-20T01:30:36.170Z,99.90
2019-04-20T01:33:12.773Z,99.90
2019-04-20T01:35:50.165Z,99.90
2019-04-20T01:38:20.893Z,99.90
2019-04-20T01:40:33.719Z,99.90
2019-04-20T01:43:03.716Z,99.90
2019-04-20T01:45:37.895Z,99.90
2019-04-20T01:48:06.365Z,99.90
2019-04-20T01:50:38.266Z,99.90
2019-04-20T01:53:19.021Z,99.90
2019-04-20T01:55:50.639Z,99.90
2019-04-20T01:58:36.366Z,99.90
2019-04-20T02:01:09.228Z,99.90
2019-04-20T02:03:38.531Z,99.90
2019-04-20T02:06:16.722Z,99.90
2019-04-20T02:08:44.142Z,99.90
2019-04-20T02:11:21.299Z,99.90
2019-04-20T02:13:52.840Z,99.90
2019-04-20T02:16:24.354Z,99.90
2019-04-20T02:19:05.272Z,99.90
2019-04-20T02:21:33.513Z,99.90
2019-04-20T02:23:54.673Z,99.90
2019-04-20T02:26:20.031Z,99.90
2019-04-20T02:29:33.578Z,99.90
2019-04-20T02:32:05.081Z,99.90
2019-04-20T02:34:33.542Z,99.90
2019-04-20T02:39:46.274Z,99.90
2019-04-20T02:47:21.575Z,99.90
2019-04-20T02:49:51.871Z,99.90
2019-04-20T02:52:25.050Z,99.90
2019-04-20T02:54:48.711Z,99.90
2019-04-20T02:57:22.447Z,99.90
2019-04-20T03:00:01.116Z,99.90
2019-04-20T03:02:06.400Z,99.90
2019-04-20T03:04:34.154Z,99.90
2019-04-20T03:07:07.930Z,99.90
2019-04-20T03:09:46.514Z,99.90
2019-04-20T03:12:18.727Z,99.90
2019-04-20T03:14:39.600Z,99.90
2019-04-20T03:17:21.141Z,99.90
2019-04-20T03:19:41.232Z,99.90
2019-04-20T03:22:27.286Z,99.90
2019-04-20T03:24:54.397Z,99.90
2019-04-20T03:27:19.190Z,99.90
2019-04-20T03:29:56.245Z,99.90
2019-04-20T03:35:14.934Z,99.90
2019-04-20T03:37:36.977Z,99.90
2019-04-20T03:39:57.070Z,99.90
2019-04-20T03:42:14.215Z,99.90
2019-04-20T03:44:54.056Z,99.90
2019-04-20T03:47:29.157Z,99.90
2019-04-20T03:50:07.882Z,99.90
2019-04-20T03:52:36.252Z,99.90
2019-04-20T03:55:16.226Z,99.90
2019-04-20T03:58:04.529Z,99.90
2019-04-20T04:00:51.773Z,99.90
2019-04-20T04:03:36.147Z,99.90
2019-04-20T04:05:56.844Z,99.90
2019-04-20T04:08:24.771Z,99.90
2019-04-20T04:11:02.808Z,99.90
2019-04-20T04:13:18.788Z,99.90
2019-04-20T04:15:55.600Z,99.90
2019-04-20T04:18:27.992Z,99.90
2019-04-20T04:21:01.401Z,99.90
2019-04-20T04:23:40.797Z,99.90
2019-04-20T04:26:08.616Z,99.90
2019-04-20T04:28:41.114Z,99.90
2019-04-20T04:31:20.480Z,99.90
2019-04-20T04:36:15.359Z,99.90
2019-04-20T04:38:53.694Z,99.90
2019-04-20T04:41:22.883Z,99.90
2019-04-20T04:43:49.925Z,99.90
2019-04-20T04:46:04.127Z,99.90
2019-04-20T04:48:37.518Z,99.90
2019-04-20T04:51:14.946Z,99.90
2019-04-20T04:53:47.807Z,99.90
2019-04-20T04:56:14.128Z,99.90
2019-04-20T04:58:42.638Z,99.90
2019-04-20T05:01:18.516Z,99.90
2019-04-20T05:04:09.821Z,99.90
2019-04-20T05:06:31.802Z,99.90
2019-04-20T05:08:51.469Z,99.90
2019-04-20T05:11:17.875Z,99.90
2019-04-20T05:13:54.644Z,99.90
2019-04-20T05:16:38.498Z,99.90
2019-04-20T05:19:13.400Z,99.90
2019-04-20T05:21:57.439Z,99.90
2019-04-20T05:24:26.869Z,99.90
2019-04-20T05:27:06.025Z,97.50
2019-04-20T05:29:18.013Z,97.80
2019-04-20T05:31:49.040Z,96.10
2019-04-20T05:34:38.712Z,97.20
2019-04-20T05:37:17.371Z,95.50
2019-04-20T05:39:38.190Z,93.20
2019-04-20T05:42:12.348Z,94.00
2019-04-20T05:44:44.314Z,91.50
2019-04-20T05:47:11.340Z,89.60
2019-04-20T05:49:39.952Z,83.50
2019-04-20T05:52:24.080Z,84.40
2019-04-20T05:54:45.633Z,86.40
2019-04-20T05:57:21.355Z,88.70
2019-04-20T05:59:53.159Z,89.70
2019-04-20T06:02:15.977Z,84.80
2019-04-20T06:04:59.687Z,82.50
2019-04-20T06:07:24.003Z,79.00
2019-04-20T06:09:54.494Z,73.90
2019-04-20T06:12:22.369Z,72.50
2019-04-20T06:15:06.309Z,67.90
2019-04-20T06:17:50.304Z,70.20
2019-04-20T06:20:24.440Z,70.20
2019-04-20T06:22:58.116Z,70.50
2019-04-20T06:25:39.657Z,63.70
2019-04-20T06:27:57.145Z,59.00
2019-04-20T06:30:23.901Z,58.10
2019-04-20T06:33:52.158Z,55.80
2019-04-20T06:41:14.225Z,54.10
2019-04-20T06:43:41.196Z,51.40
2019-04-20T06:46:31.958Z,52.50
2019-04-20T06:49:15.120Z,53.40
2019-04-20T06:51:54.220Z,50.10
2019-04-20T06:54:28.881Z,47.70
2019-04-20T06:57:08.857Z,46.40
2019-04-20T06:59:39.310Z,47.90
2019-04-20T07:02:11.384Z,46.00
2019-04-20T07:07:08.616Z,46.70
2019-04-20T07:09:49.627Z,44.80
2019-04-20T07:12:06.420Z,44.70
2019-04-20T07:14:35.940Z,42.60
2019-04-20T07:17:33.535Z,41.60
2019-04-20T07:19:50.140Z,40.40
2019-04-20T07:22:33.588Z,42.20
2019-04-20T07:25:02.373Z,40.40
2019-04-20T07:27:33.647Z,39.40
2019-04-20T07:30:04.031Z,38.40
2019-04-20T07:32:38.933Z,38.50
2019-04-20T07:35:08.459Z,40.40
2019-04-20T07:40:10.419Z,39.90
2019-04-20T07:42:43.727Z,40.00
2019-04-20T07:45:19.936Z,38.20
2019-04-20T07:47:47.749Z,36.80
2019-04-20T07:50:07.720Z,36.20
2019-04-20T07:52:33.896Z,35.90
2019-04-20T07:57:44.117Z,34.90
2019-04-20T08:00:21.461Z,33.80
2019-04-20T08:03:12.863Z,34.90
2019-04-20T08:05:31.210Z,34.80
2019-04-20T08:08:02.680Z,33.10
2019-04-20T08:10:36.069Z,32.30
2019-04-20T08:13:21.657Z,32.40
2019-04-20T08:18:17.557Z,32.60
2019-04-20T08:20:47.502Z,34.20
2019-04-20T08:23:17.124Z,33.70
2019-04-20T08:25:39.884Z,32.20
2019-04-20T08:28:15.337Z,31.30
2019-04-20T08:31:01.908Z,31.90
2019-04-20T08:33:34.862Z,30.10
2019-04-20T08:36:11.110Z,30.00
2019-04-20T08:39:07.126Z,28.90
2019-04-20T08:41:12.050Z,28.70
2019-04-20T08:43:46.824Z,28.10
2019-04-20T08:46:17.767Z,28.70
2019-04-20T08:48:48.738Z,27.30
2019-04-20T08:51:14.586Z,26.70
2019-04-20T08:53:48.054Z,26.30
2019-04-20T08:56:10.969Z,26.70
2019-04-20T08:58:29.887Z,27.10
2019-04-20T09:01:03.583Z,29.20
2019-04-20T09:03:43.806Z,29.70
2019-04-20T09:06:09.843Z,30.10
2019-04-20T09:08:46.582Z,33.40
2019-04-20T09:11:21.917Z,34.10
2019-04-20T09:13:44.108Z,33.80
2019-04-20T09:16:06.758Z,33.80
2019-04-20T09:18:47.973Z,32.80
2019-04-20T09:21:22.113Z,31.80
2019-04-20T09:24:11.783Z,33.00
2019-04-20T09:26:35.539Z,32.80
2019-04-20T09:28:59.131Z,33.00
2019-04-20T09:31:39.299Z,33.40
2019-04-20T09:34:16.115Z,33.10
2019-04-20T09:36:49.848Z,34.10
2019-04-20T09:39:22.534Z,34.10
2019-04-20T09:42:02.387Z,34.30
2019-04-20T09:44:39.829Z,32.30
2019-04-20T09:47:04.648Z,30.90
2019-04-20T09:49:46.026Z,32.60
2019-04-20T09:52:18.474Z,31.70
2019-04-20T09:54:55.190Z,31.70
2019-04-20T09:57:25.507Z,31.70
2019-04-20T09:59:58.711Z,31.90
2019-04-20T10:02:16.700Z,33.20
2019-04-20T10:04:40.155Z,33.60
2019-04-20T10:07:15.805Z,31.00
2019-04-20T10:09:44.550Z,30.90
2019-04-20T10:12:11.542Z,30.90
2019-04-20T10:14:40.854Z,29.60
2019-04-20T10:17:11.868Z,30.90
2019-04-20T10:19:43.052Z,31.20
2019-04-20T10:22:13.065Z,28.90
2019-04-20T10:24:44.163Z,28.70
2019-04-20T10:27:14.613Z,27.60
2019-04-20T10:29:44.062Z,27.40
2019-04-20T10:32:16.032Z,27.80
2019-04-20T10:34:46.414Z,28.80
2019-04-20T10:37:20.229Z,29.00
2019-04-20T10:39:49.820Z,28.50
2019-04-20T10:42:20.373Z,29.40
2019-04-20T10:44:54.937Z,28.40
2019-04-20T10:47:23.060Z,28.80
2019-04-20T10:49:53.273Z,29.70
2019-04-20T10:52:23.586Z,29.70
2019-04-20T10:54:54.423Z,30.70
2019-04-20T10:57:25.779Z,31.30
2019-04-20T10:59:55.481Z,30.90
2019-04-20T11:02:25.906Z,31.80
2019-04-20T11:04:56.866Z,31.40
2019-04-20T11:07:26.531Z,33.00
2019-04-20T11:10:07.903Z,31.40
2019-04-20T11:12:28.351Z,32.60
2019-04-20T11:14:58.682Z,32.60
2019-04-20T11:17:30.047Z,33.40
2019-04-20T11:19:59.253Z,34.00
2019-04-20T11:22:28.584Z,33.90
2019-04-20T11:24:58.867Z,34.10
2019-04-20T11:27:28.200Z,33.20
2019-04-20T11:29:58.238Z,34.00
2019-04-20T11:32:28.359Z,34.80
2019-04-20T11:35:02.220Z,34.80
2019-04-20T11:37:29.093Z,33.30
2019-04-20T11:39:59.048Z,33.20
2019-04-20T11:42:29.824Z,33.80
2019-04-20T11:45:00.426Z,33.90
2019-04-20T11:47:29.827Z,33.90
2019-04-20T11:49:59.544Z,34.00
2019-04-20T11:52:33.257Z,34.50
2019-04-20T11:55:02.305Z,34.30
2019-04-20T11:57:33.424Z,34.70
2019-04-20T12:00:08.748Z,35.70
2019-04-20T12:02:44.740Z,34.70
2019-04-20T12:05:26.209Z,35.10
2019-04-20T12:07:58.689Z,34.80
2019-04-20T12:10:29.598Z,35.40
2019-04-20T12:12:59.639Z,35.50
2019-04-20T12:15:32.197Z,35.00
2019-04-20T12:18:01.938Z,35.80
2019-04-20T12:20:32.488Z,35.60
2019-04-20T12:23:02.189Z,36.40
2019-04-20T12:25:35.886Z,37.00
2019-04-20T12:28:05.326Z,37.40
2019-04-20T12:30:35.495Z,36.40
2019-04-20T12:33:05.814Z,36.40
2019-04-20T12:35:36.179Z,36.60
2019-04-20T12:38:07.324Z,36.90
2019-04-20T12:40:37.971Z,37.50
2019-04-20T12:43:08.842Z,36.70
2019-04-20T12:45:38.334Z,35.90
2019-04-20T12:48:08.020Z,36.50
2019-04-20T12:50:37.531Z,37.20
2019-04-20T12:53:08.603Z,37.90
2019-04-20T12:55:38.876Z,37.70
2019-04-20T12:58:08.399Z,37.40
2019-04-20T13:00:46.114Z,37.20
2019-04-20T13:03:15.446Z,37.00
2019-04-20T13:05:45.856Z,37.20
2019-04-20T13:08:23.255Z,37.40
2019-04-20T13:10:48.718Z,37.70
2019-04-20T13:13:28.741Z,37.20
2019-04-20T13:16:05.667Z,37.40
2019-04-20T13:18:43.346Z,37.20
2019-04-20T13:21:13.315Z,37.60
2019-04-20T13:23:43.232Z,37.60
2019-04-20T13:26:13.919Z,38.40
2019-04-20T13:28:43.819Z,38.40
2019-04-20T13:31:13.600Z,39.10
2019-04-20T13:33:43.281Z,38.20
2019-04-20T13:36:12.619Z,38.60
2019-04-20T13:38:42.014Z,38.50
2019-04-20T13:41:11.716Z,39.00
2019-04-20T13:43:41.881Z,38.60
2019-04-20T13:46:13.325Z,39.20
2019-04-20T13:48:42.883Z,38.30
2019-04-20T13:51:12.700Z,38.90
2019-04-20T13:53:43.314Z,39.40
2019-04-20T13:56:14.027Z,38.90
2019-04-20T13:58:54.319Z,38.80
2019-04-20T14:01:32.489Z,38.30
2019-04-20T14:04:04.982Z,39.60
2019-04-20T14:06:35.313Z,39.60
2019-04-20T14:09:07.538Z,40.00
2019-04-20T14:11:39.030Z,41.20
2019-04-20T14:14:08.627Z,39.50
2019-04-20T14:16:39.026Z,39.30
2019-04-20T14:19:09.287Z,40.10
2019-04-20T14:21:38.741Z,39.80
2019-04-20T14:24:08.862Z,40.70
2019-04-20T14:26:39.462Z,37.90
2019-04-20T14:29:10.397Z,39.70
2019-04-20T14:31:39.873Z,39.60
2019-04-20T14:34:09.188Z,39.60
2019-04-20T14:36:39.055Z,39.40
2019-04-20T14:39:10.107Z,38.50
2019-04-20T14:41:40.383Z,38.50
2019-04-20T14:44:12.078Z,36.90
2019-04-20T14:46:42.006Z,36.50
2019-04-20T14:49:12.573Z,37.00
2019-04-20T14:51:42.008Z,37.40
2019-04-20T14:54:11.716Z,38.30
2019-04-20T14:56:43.203Z,37.60
2019-04-20T14:59:15.693Z,37.70
2019-04-20T15:01:52.551Z,37.50
2019-04-20T15:04:23.838Z,38.30
2019-04-20T15:06:52.975Z,39.10
2019-04-20T15:09:22.318Z,39.70
2019-04-20T15:11:52.714Z,38.30
2019-04-20T15:14:22.819Z,38.40
2019-04-20T15:16:52.892Z,38.70
2019-04-20T15:19:25.322Z,37.40
2019-04-20T15:21:57.742Z,38.50
2019-04-20T15:24:27.419Z,38.40
2019-04-20T15:26:58.306Z,38.20
2019-04-20T15:29:28.474Z,39.00
2019-04-20T15:31:58.077Z,38.50
2019-04-20T15:34:28.795Z,37.90
2019-04-20T15:36:58.316Z,38.00
2019-04-20T15:39:27.633Z,37.30
2019-04-20T15:41:57.123Z,38.00
2019-04-20T15:44:27.227Z,40.00
2019-04-20T15:46:57.321Z,40.00
2019-04-20T15:49:28.142Z,41.00
2019-04-20T15:51:57.912Z,40.80
2019-04-20T15:54:27.540Z,41.50
2019-04-20T15:57:02.539Z,42.00
2019-04-20T15:59:28.521Z,42.00
2019-04-20T16:01:59.673Z,42.20
2019-04-20T16:04:35.584Z,42.00
2019-04-20T16:07:03.282Z,40.90
2019-04-20T16:09:33.677Z,41.90
2019-04-20T16:12:03.127Z,42.20
2019-04-20T16:14:33.377Z,41.70
2019-04-20T16:17:06.557Z,42.30
2019-04-20T16:19:44.974Z,41.80
2019-04-20T16:22:05.942Z,42.00
2019-04-20T16:24:40.677Z,42.00
2019-04-20T16:27:17.945Z,41.20
2019-04-20T16:29:47.510Z,42.40
2019-04-20T16:32:16.851Z,43.10
2019-04-20T16:34:46.514Z,43.00
2019-04-20T16:37:16.915Z,43.40
2019-04-20T16:39:46.567Z,43.30
2019-04-20T16:42:16.214Z,43.60
2019-04-20T16:44:45.677Z,43.70
2019-04-20T16:47:16.337Z,43.70
2019-04-20T16:49:46.739Z,44.50
2019-04-20T16:52:16.826Z,44.30
2019-04-20T16:54:46.348Z,43.50
2019-04-20T16:57:17.142Z,44.00
2019-04-20T16:59:50.540Z,43.90
2019-04-20T17:02:19.625Z,44.10
2019-04-20T17:04:51.291Z,45.00
2019-04-20T17:07:21.427Z,45.40
2019-04-20T17:09:51.933Z,45.40
2019-04-20T17:12:21.734Z,45.40
2019-04-20T17:14:51.633Z,45.90
2019-04-20T17:17:21.963Z,45.60
2019-04-20T17:19:51.573Z,45.70
2019-04-20T17:22:21.486Z,46.60
2019-04-20T17:24:51.553Z,45.70
2019-04-20T17:27:37.435Z,46.30
2019-04-20T17:30:26.710Z,47.40
2019-04-20T17:32:57.896Z,47.80
2019-04-20T17:35:37.966Z,47.50
2019-04-20T17:37:58.488Z,48.00
2019-04-20T17:40:46.012Z,47.00
2019-04-20T17:43:09.312Z,45.50
2019-04-20T17:45:42.173Z,45.30
2019-04-20T17:48:16.959Z,44.80
2019-04-20T17:50:57.860Z,43.50
2019-04-20T17:53:18.705Z,44.30
2019-04-20T17:55:41.226Z,43.60
2019-04-20T17:58:12.102Z,43.70
2019-04-20T18:00:49.374Z,44.30
2019-04-20T18:03:52.888Z,44.70
2019-04-20T18:06:12.755Z,44.90
2019-04-20T18:08:45.397Z,45.00
2019-04-20T18:11:03.675Z,45.30
2019-04-20T18:13:30.262Z,45.40
2019-04-20T18:16:26.360Z,46.10
2019-04-20T18:18:55.251Z,46.00
2019-04-20T18:21:30.965Z,46.10
2019-04-20T18:24:00.476Z,46.30
2019-04-20T18:26:48.222Z,47.00
2019-04-20T18:29:20.195Z,48.00
2019-04-20T18:31:33.651Z,48.70
2019-04-20T18:34:11.314Z,49.10
2019-04-20T18:36:39.940Z,49.60
2019-04-20T18:39:11.867Z,49.70
2019-04-20T18:41:45.548Z,49.90
2019-04-20T18:44:10.840Z,49.00
2019-04-20T18:47:06.671Z,49.30
2019-04-20T18:49:27.208Z,48.90
2019-04-20T18:51:43.837Z,49.50
2019-04-20T18:54:18.846Z,49.90
2019-04-20T18:56:50.069Z,48.10
2019-04-20T18:59:16.754Z,50.00
2019-04-20T19:01:46.743Z,48.50
2019-04-20T19:04:17.564Z,48.10
2019-04-20T19:06:47.990Z,48.90
2019-04-20T19:09:24.230Z,48.10
2019-04-20T19:11:53.441Z,47.20
2019-04-20T19:14:40.888Z,45.90
2019-04-20T19:17:23.042Z,45.60
2019-04-20T19:19:52.959Z,46.50
2019-04-20T19:22:19.672Z,46.40
2019-04-20T19:24:49.790Z,46.60
2019-04-20T19:27:24.619Z,46.80
2019-04-20T19:29:58.666Z,47.30
2019-04-20T19:32:35.949Z,47.20
2019-04-20T19:35:02.308Z,47.80
2019-04-20T19:37:29.137Z,48.40
2019-04-20T19:40:07.058Z,48.20
2019-04-20T19:42:39.609Z,48.60
2019-04-20T19:45:17.508Z,49.20
2019-04-20T19:47:46.820Z,49.30
2019-04-20T19:50:28.542Z,49.60
2019-04-20T19:53:02.149Z,50.00
2019-04-20T19:55:23.393Z,50.40
2019-04-20T19:57:50.446Z,51.40
2019-04-20T20:00:08.260Z,53.00
2019-04-20T20:02:39.437Z,52.90
2019-04-20T20:05:14.697Z,53.40
2019-04-20T20:07:44.460Z,54.90
2019-04-20T20:10:12.750Z,55.10
2019-04-20T20:12:48.334Z,56.30
2019-04-20T20:15:22.083Z,58.60
2019-04-20T20:18:10.201Z,58.80
2019-04-20T20:20:35.877Z,60.60
2019-04-20T20:22:50.549Z,63.00
2019-04-20T20:25:18.891Z,63.40
2019-04-20T20:27:54.319Z,65.90
2019-04-20T20:30:29.119Z,65.60
2019-04-20T20:33:05.982Z,67.60
2019-04-20T20:35:26.070Z,68.40
2019-04-20T20:37:57.126Z,71.10
2019-04-20T20:40:30.283Z,72.80
2019-04-20T20:43:08.044Z,74.60
2019-04-20T20:45:33.675Z,74.80
2019-04-20T20:48:18.257Z,75.10
2019-04-20T20:50:49.111Z,75.50
2019-04-20T20:53:10.154Z,75.60
2019-04-20T20:55:38.227Z,77.10
2019-04-20T20:58:08.579Z,76.70
2019-04-20T21:00:42.897Z,78.70
2019-04-20T21:03:06.041Z,79.20
2019-04-20T21:05:35.589Z,82.90
2019-04-20T21:08:05.881Z,82.90
2019-04-20T21:10:41.845Z,84.60
2019-04-20T21:13:08.973Z,89.50
2019-04-20T21:15:38.376Z,89.50
2019-04-20T21:18:28.673Z,90.30
2019-04-20T21:20:54.025Z,92.40
2019-04-20T21:23:25.171Z,92.80
2019-04-20T21:26:01.221Z,94.00
2019-04-20T21:28:35.727Z,94.90
2019-04-20T21:31:08.426Z,95.80
2019-04-20T21:33:37.789Z,95.90
2019-04-20T21:36:07.099Z,95.80
2019-04-20T21:38:40.750Z,95.70
2019-04-20T21:41:11.332Z,96.40
2019-04-20T21:43:41.239Z,96.00
2019-04-20T21:46:11.911Z,96.20
2019-04-20T21:48:56.023Z,96.80
2019-04-20T21:51:25.745Z,97.30
2019-04-20T21:53:44.155Z,97.80
2019-04-20T21:56:13.680Z,98.30
2019-04-20T21:58:49.440Z,98.70
2019-04-20T22:01:25.372Z,99.10
2019-04-20T22:03:48.144Z,98.60
2019-04-20T22:06:18.358Z,99.20
2019-04-20T22:08:51.812Z,99.50
2019-04-20T22:11:19.963Z,99.90
2019-04-20T22:13:51.125Z,99.90
2019-04-20T22:16:22.678Z,99.90
2019-04-20T22:19:04.642Z,99.90
2019-04-20T22:21:31.408Z,99.90
2019-04-20T22:24:07.855Z,99.90
2019-04-20T22:26:33.721Z,99.90
2019-04-20T22:28:56.337Z,99.90
2019-04-20T22:31:26.373Z,99.90
2019-04-20T22:34:02.284Z,99.90
2019-04-20T22:36:33.865Z,99.90
2019-04-20T22:39:13.860Z,99.90
2019-04-20T22:41:52.550Z,99.90
2019-04-20T22:44:20.703Z,99.90
2019-04-20T22:46:47.736Z,99.90
2019-04-20T22:49:33.702Z,99.90
2019-04-20T22:51:58.141Z,99.90
2019-04-20T22:54:37.658Z,99.90
2019-04-20T22:57:02.055Z,99.90
2019-04-20T22:59:30.336Z,99.90
2019-04-20T23:01:58.208Z,99.90
2019-04-20T23:04:24.708Z,99.90
2019-04-20T23:06:55.884Z,99.90
2019-04-20T23:09:26.477Z,99.90
2019-04-20T23:12:03.586Z,99.90
2019-04-20T23:14:28.678Z,99.90
2019-04-20T23:16:58.137Z,99.90
2019-04-20T23:19:36.603Z,99.90
2019-04-20T23:22:03.101Z,99.90
2019-04-20T23:24:31.086Z,99.90
2019-04-20T23:27:05.355Z,99.90
2019-04-20T23:29:37.646Z,99.90
2019-04-20T23:32:06.385Z,99.90
2019-04-20T23:34:34.591Z,99.90
2019-04-20T23:37:10.231Z,99.90
2019-04-20T23:39:41.507Z,99.90
2019-04-20T23:42:10.814Z,99.90
2019-04-20T23:44:59.893Z,99.90
2019-04-20T23:47:39.759Z,99.90
2019-04-20T23:50:35.450Z,99.90
2019-04-20T23:53:07.534Z,99.90
2019-04-20T23:55:18.667Z,99.90
2019-04-20T23:57:53.489Z,99.90
